Time;durP1;ratioP1;P1;durP2;ratioP2;P2;SDS_P1;SDS_P2;PMS_P1;PMS_P2;Temp;Humidity;BMP_temperature;BMP_pressure;BME280_temperature;BME280_humidity;BME280_pressure;Samples;Min_cycle;Max_cycle;Signal;HPM_P1;HPM_P2
2022/05/15 00:00:37;;;;;;;0.15;0.05;;;14.60;99.90;;;;;;5074046;28;20023;-84
2022/05/15 00:03:06;;;;;;;0.75;0.10;;;14.70;99.90;;;;;;5062680;28;20103;-84
2022/05/15 00:05:32;;;;;;;0.00;0.00;;;14.70;99.90;;;;;;5074324;28;20024;-85
2022/05/15 00:07:58;;;;;;;0.10;0.10;;;14.80;99.90;;;;;;5070946;28;20058;-85
2022/05/15 00:10:25;;;;;;;0.35;0.20;;;14.80;99.90;;;;;;5051328;28;20048;-86
2022/05/15 00:12:51;;;;;;;4.38;1.48;;;14.60;99.90;;;;;;5067712;28;20086;-85
2022/05/15 00:15:17;;;;;;;0.90;0.90;;;14.70;99.90;;;;;;5069074;28;20016;-85
2022/05/15 00:17:43;;;;;;;0.20;0.20;;;14.80;99.90;;;;;;5055325;28;20106;-84
2022/05/15 00:20:10;;;;;;;0.25;0.25;;;14.90;99.90;;;;;;5071808;28;20053;-83
2022/05/15 00:22:36;;;;;;;0.20;0.20;;;14.90;99.90;;;;;;5074027;28;20402;-83
2022/05/15 00:25:05;;;;;;;0.80;0.45;;;14.80;99.90;;;;;;5072798;28;20059;-85
2022/05/15 00:27:31;;;;;;;0.00;0.00;;;14.80;99.90;;;;;;5074096;28;20020;-85
2022/05/15 00:29:58;;;;;;;0.00;0.00;;;14.80;99.90;;;;;;5073124;28;20023;-86
2022/05/15 00:32:24;;;;;;;0.00;0.00;;;14.80;99.90;;;;;;5073290;28;20012;-85
2022/05/15 00:34:50;;;;;;;0.00;0.00;;;14.70;99.90;;;;;;5073111;28;20052;-86
2022/05/15 00:37:17;;;;;;;0.00;0.00;;;14.60;99.90;;;;;;5072122;28;20071;-85
2022/05/15 00:39:43;;;;;;;0.00;0.00;;;14.70;99.90;;;;;;5072834;28;20017;-85
2022/05/15 00:42:11;;;;;;;0.00;0.00;;;14.80;99.90;;;;;;5070982;28;20028;-86
2022/05/15 00:44:37;;;;;;;0.00;0.00;;;15.00;99.90;;;;;;5054638;28;20215;-85
2022/05/15 00:47:04;;;;;;;0.00;0.00;;;15.00;99.90;;;;;;5068210;28;20024;-85
2022/05/15 00:49:34;;;;;;;0.00;0.00;;;14.80;99.90;;;;;;5070455;28;20066;-86
2022/05/15 00:52:07;;;;;;;0.00;0.00;;;14.90;99.90;;;;;;5068286;28;20027;-85
2022/05/15 00:54:39;;;;;;;0.00;0.00;;;15.00;99.90;;;;;;5047119;28;20036;-87
2022/05/15 00:57:08;;;;;;;0.30;0.30;;;15.10;99.90;;;;;;5060783;28;20021;-86
2022/05/15 00:59:42;;;;;;;0.00;0.00;;;15.10;99.90;;;;;;5060073;28;20108;-86
2022/05/15 01:02:13;;;;;;;0.00;0.00;;;15.20;99.90;;;;;;5061065;28;20032;-85
2022/05/15 01:04:40;;;;;;;0.00;0.00;;;15.10;99.90;;;;;;5060938;28;20356;-87
2022/05/15 01:07:06;;;;;;;0.00;0.00;;;15.10;99.90;;;;;;5036873;28;20060;-87
2022/05/15 01:09:33;;;;;;;0.00;0.00;;;15.20;99.90;;;;;;5056526;28;20021;-87
2022/05/15 01:12:02;;;;;;;0.00;0.00;;;15.40;99.90;;;;;;5058644;28;20060;-86
2022/05/15 01:14:28;;;;;;;0.00;0.00;;;15.30;99.90;;;;;;5053207;28;20021;-85
2022/05/15 01:16:54;;;;;;;0.00;0.00;;;15.20;99.90;;;;;;5040865;28;20033;-84
2022/05/15 01:19:36;;;;;;;0.00;0.00;;;15.30;99.90;;;;;;5040428;28;20078;-85
2022/05/15 01:22:05;;;;;;;0.00;0.00;;;15.30;99.90;;;;;;5043084;28;20029;-85
2022/05/15 01:24:31;;;;;;;0.00;0.00;;;15.50;99.90;;;;;;5032837;28;20292;-85
2022/05/15 01:27:04;;;;;;;0.00;0.00;;;15.60;99.90;;;;;;5061314;28;20024;-87
2022/05/15 01:29:34;;;;;;;0.00;0.00;;;15.70;99.90;;;;;;5051590;28;20529;-85
2022/05/15 01:32:00;;;;;;;1.75;1.75;;;15.80;99.90;;;;;;5034142;28;20033;-85
2022/05/15 01:34:33;;;;;;;0.00;0.00;;;15.90;99.90;;;;;;5052896;28;20471;-86
2022/05/15 01:36:59;;;;;;;0.00;0.00;;;16.00;99.90;;;;;;5016103;28;20036;-86
2022/05/15 01:39:32;;;;;;;0.00;0.00;;;15.80;99.90;;;;;;5059006;28;20032;-87
2022/05/15 01:42:01;;;;;;;0.00;0.00;;;15.60;99.90;;;;;;5072489;28;20025;-85
2022/05/15 01:44:28;;;;;;;0.00;0.00;;;15.60;99.90;;;;;;5067807;28;20022;-85
2022/05/15 01:46:54;;;;;;;0.00;0.00;;;15.60;99.90;;;;;;5054248;28;20040;-87
2022/05/15 01:49:21;;;;;;;0.00;0.00;;;15.60;99.90;;;;;;5050551;28;20108;-87
2022/05/15 01:51:47;;;;;;;0.00;0.00;;;15.80;99.90;;;;;;5053399;28;20025;-84
2022/05/15 01:54:13;;;;;;;0.00;0.00;;;16.00;99.90;;;;;;5069859;28;20040;-85
2022/05/15 01:56:40;;;;;;;0.00;0.00;;;16.00;99.90;;;;;;5079205;28;20020;-85
2022/05/15 01:59:08;;;;;;;0.40;0.40;;;16.20;99.90;;;;;;5088035;28;20032;-85
2022/05/15 02:01:35;;;;;;;0.00;0.00;;;16.30;99.90;;;;;;5087155;28;20024;-86
2022/05/15 02:04:02;;;;;;;0.00;0.00;;;16.50;99.90;;;;;;5077761;28;20041;-84
2022/05/15 02:06:28;;;;;;;0.00;0.00;;;16.50;99.90;;;;;;5066680;28;20024;-86
2022/05/15 02:08:56;;;;;;;0.00;0.00;;;16.60;99.90;;;;;;5070853;28;20032;-86
2022/05/15 02:11:22;;;;;;;0.00;0.00;;;16.60;99.90;;;;;;5063991;28;20028;-84
2022/05/15 02:13:48;;;;;;;0.00;0.00;;;16.70;99.90;;;;;;5065615;28;20163;-85
2022/05/15 02:16:15;;;;;;;0.40;0.40;;;16.80;99.90;;;;;;5068556;28;20035;-85
2022/05/15 02:18:41;;;;;;;0.00;0.00;;;16.70;99.90;;;;;;5066293;28;20033;-85
2022/05/15 02:21:07;;;;;;;0.00;0.00;;;16.80;99.90;;;;;;5065305;28;20025;-86
2022/05/15 02:23:33;;;;;;;0.00;0.00;;;17.00;99.90;;;;;;5050989;28;20049;-86
2022/05/15 02:25:59;;;;;;;0.00;0.00;;;17.00;99.90;;;;;;5066710;28;20032;-84
2022/05/15 02:28:29;;;;;;;0.00;0.00;;;17.00;99.90;;;;;;5052258;28;20108;-85
2022/05/15 02:30:55;;;;;;;0.00;0.00;;;17.20;99.90;;;;;;5063085;28;20104;-85
2022/05/15 02:33:22;;;;;;;0.00;0.00;;;17.10;99.90;;;;;;5064208;28;20115;-85
2022/05/15 02:35:50;;;;;;;0.00;0.00;;;17.10;99.90;;;;;;5047500;28;20024;-85
2022/05/15 02:38:16;;;;;;;0.00;0.00;;;17.10;99.90;;;;;;5049341;28;20059;-85
2022/05/15 02:40:43;;;;;;;0.00;0.00;;;17.10;99.90;;;;;;5051243;28;20037;-86
2022/05/15 02:43:09;;;;;;;0.00;0.00;;;17.10;99.90;;;;;;5056944;28;20368;-85
2022/05/15 02:45:35;;;;;;;0.00;0.00;;;17.10;99.90;;;;;;5062943;28;20020;-84
2022/05/15 02:48:01;;;;;;;0.00;0.00;;;17.00;99.90;;;;;;5049881;28;20032;-84
2022/05/15 02:53:12;;;;;;;0.00;0.00;;;16.90;99.90;;;;;;5072023;28;20418;-84
2022/05/15 02:55:38;;;;;;;0.00;0.00;;;16.90;99.90;;;;;;5065270;28;20021;-85
2022/05/15 02:58:04;;;;;;;0.00;0.00;;;16.80;99.90;;;;;;5069801;28;20025;-85
2022/05/15 03:00:31;;;;;;;0.00;0.00;;;16.80;99.90;;;;;;5070302;28;20036;-85
2022/05/15 03:02:57;;;;;;;0.00;0.00;;;16.80;99.90;;;;;;5071077;28;20028;-85
2022/05/15 03:05:23;;;;;;;0.00;0.00;;;16.70;99.90;;;;;;5062970;28;20100;-84
2022/05/15 03:07:50;;;;;;;0.20;0.20;;;16.80;99.90;;;;;;5069498;28;20498;-84
2022/05/15 03:10:19;;;;;;;0.00;0.00;;;16.80;99.90;;;;;;5059097;28;20025;-85
2022/05/15 03:12:46;;;;;;;0.00;0.00;;;16.90;99.90;;;;;;5045394;28;20112;-85
2022/05/15 03:15:14;;;;;;;0.00;0.00;;;16.60;99.90;;;;;;5074949;28;20033;-85
2022/05/15 03:17:41;;;;;;;0.00;0.00;;;16.40;99.90;;;;;;5053805;28;20060;-85
2022/05/15 03:20:08;;;;;;;0.00;0.00;;;16.70;99.90;;;;;;5070639;28;20372;-85
2022/05/15 03:22:35;;;;;;;0.00;0.00;;;17.10;99.90;;;;;;5054061;28;20119;-84
2022/05/15 03:25:03;;;;;;;0.00;0.00;;;17.30;99.90;;;;;;5055320;28;20082;-84
2022/05/15 03:27:29;;;;;;;0.00;0.00;;;17.10;99.90;;;;;;5071287;28;20029;-84
2022/05/15 03:29:57;;;;;;;0.00;0.00;;;17.00;99.90;;;;;;5073293;28;20051;-83
2022/05/15 03:32:24;;;;;;;0.00;0.00;;;16.80;99.90;;;;;;5074426;28;20032;-84
2022/05/15 03:34:50;;;;;;;0.00;0.00;;;16.90;99.90;;;;;;5069753;28;20494;-84
2022/05/15 03:37:18;;;;;;;0.00;0.00;;;17.30;99.90;;;;;;5073326;28;20403;-84
2022/05/15 03:39:44;;;;;;;0.00;0.00;;;17.40;99.90;;;;;;5074014;28;20123;-85
2022/05/15 03:42:11;;;;;;;0.00;0.00;;;17.70;99.90;;;;;;5069024;28;20032;-85
2022/05/15 03:44:37;;;;;;;0.20;0.13;;;17.80;99.90;;;;;;5069295;28;20021;-84
2022/05/15 03:47:07;;;;;;;0.00;0.00;;;17.50;99.90;;;;;;5071768;28;20021;-85
2022/05/15 03:49:33;;;;;;;0.00;0.00;;;17.30;99.90;;;;;;5072685;28;20021;-84
2022/05/15 03:51:59;;;;;;;0.00;0.00;;;17.00;99.90;;;;;;5072444;28;20107;-85
2022/05/15 03:54:26;;;;;;;0.80;0.80;;;17.10;99.90;;;;;;5073564;28;20078;-85
2022/05/15 03:56:57;;;;;;;0.22;0.22;;;16.80;99.90;;;;;;5075731;28;20032;-84
2022/05/15 03:59:33;;;;;;;1.90;0.90;;;16.50;99.90;;;;;;5078762;28;20116;-87
2022/05/15 04:02:01;;;;;;;0.85;0.85;;;16.10;99.90;;;;;;5050568;28;20403;-85
2022/05/15 04:04:28;;;;;;;0.20;0.20;;;16.20;99.90;;;;;;5071810;28;20021;-85
2022/05/15 04:06:54;;;;;;;3.55;2.00;;;16.70;99.90;;;;;;5071278;28;20071;-85
2022/05/15 04:09:21;;;;;;;0.90;0.90;;;16.40;99.90;;;;;;5075339;28;20024;-84
2022/05/15 04:11:48;;;;;;;0.00;0.00;;;16.10;99.90;;;;;;5054680;28;20375;-85
2022/05/15 04:14:14;;;;;;;0.00;0.00;;;16.30;99.90;;;;;;5048695;28;20417;-85
2022/05/15 04:16:40;;;;;;;0.00;0.00;;;16.40;99.90;;;;;;5073159;28;20025;-87
2022/05/15 04:19:07;;;;;;;0.00;0.00;;;16.50;99.90;;;;;;5074859;28;20064;-87
2022/05/15 04:21:37;;;;;;;0.00;0.00;;;16.80;99.90;;;;;;5075786;28;20025;-86
2022/05/15 04:24:09;;;;;;;0.00;0.00;;;16.90;99.90;;;;;;5076326;28;20024;-86
2022/05/15 04:26:37;;;;;;;0.05;0.05;;;16.50;99.90;;;;;;5075043;28;20035;-86
2022/05/15 04:29:04;;;;;;;0.00;0.00;;;16.50;99.90;;;;;;5050833;28;20025;-83
2022/05/15 04:31:30;;;;;;;0.00;0.00;;;16.60;99.90;;;;;;5089975;28;20040;-84
2022/05/15 04:33:57;;;;;;;0.03;0.03;;;16.30;99.90;;;;;;5068695;28;20036;-85
2022/05/15 04:36:24;;;;;;;0.00;0.00;;;16.50;99.90;;;;;;5095386;28;20100;-85
2022/05/15 04:38:53;;;;;;;0.28;0.28;;;16.80;99.90;;;;;;5099831;28;20036;-86
2022/05/15 04:41:19;;;;;;;0.57;0.57;;;16.80;99.90;;;;;;5081407;28;20027;-85
2022/05/15 04:43:47;;;;;;;0.00;0.00;;;16.60;99.90;;;;;;5098373;28;20119;-85
2022/05/15 04:46:16;;;;;;;0.00;0.00;;;17.00;99.90;;;;;;5087591;28;20028;-85
2022/05/15 04:51:34;;;;;;;0.25;0.25;;;17.00;99.90;;;;;;5059535;28;20100;-88
2022/05/15 04:54:09;;;;;;;1.50;1.42;;;16.90;99.90;;;;;;5054881;28;20479;-87
2022/05/15 04:56:53;;;;;;;;;;;;;;;;;;;;;
2022/05/15 04:59:33;;;;;;;0.00;0.00;;;16.90;99.90;;;;;;5075384;28;20361;-89
2022/05/15 05:02:25;;;;;;;0.00;0.00;;;17.10;99.90;;;;;;5051165;28;20092;-86
2022/05/15 05:05:39;;;;;;;6.32;5.95;;;17.30;99.90;;;;;;5073761;28;20037;-89
2022/05/15 05:08:16;;;;;;;0.00;0.00;;;17.70;99.90;;;;;;5049687;28;20056;-87
2022/05/15 05:10:44;;;;;;;0.00;0.00;;;18.10;99.90;;;;;;5070634;28;20089;-86
2022/05/15 05:13:10;;;;;;;1.75;1.75;;;18.20;99.90;;;;;;5075659;28;20028;-87
2022/05/15 05:15:36;;;;;;;0.00;0.00;;;18.40;99.90;;;;;;5050251;28;20382;-86
2022/05/15 05:18:05;;;;;;;0.00;0.00;;;18.40;99.90;;;;;;5069684;28;20089;-86
2022/05/15 05:20:39;;;;;;;0.22;0.20;;;18.70;99.90;;;;;;5076031;28;20111;-89
2022/05/15 05:23:08;;;;;;;0.00;0.00;;;19.00;99.90;;;;;;5056251;28;20064;-86
2022/05/15 05:25:39;;;;;;;0.00;0.00;;;19.00;99.90;;;;;;5077314;28;20028;-86
2022/05/15 05:28:06;;;;;;;0.00;0.00;;;19.20;99.90;;;;;;5057706;28;20031;-85
2022/05/15 05:30:33;;;;;;;0.00;0.00;;;19.40;99.90;;;;;;5054268;28;20032;-85
2022/05/15 05:33:00;;;;;;;0.00;0.00;;;19.70;99.90;;;;;;5071918;28;20471;-84
2022/05/15 05:35:27;;;;;;;0.00;0.00;;;19.20;99.90;;;;;;5066333;28;20056;-82
2022/05/15 05:44:52;;;;;;;0.00;0.00;;;19.70;99.90;;;;;;5029105;28;20137;-82
2022/05/15 05:47:25;;;;;;;4.18;2.17;;;20.00;99.90;;;;;;5048350;28;20036;-77
2022/05/15 05:49:52;;;;;;;0.00;0.00;;;20.10;99.90;;;;;;5054400;28;20060;-83
2022/05/15 05:52:21;;;;;;;0.00;0.00;;;20.20;99.90;;;;;;5068644;28;20028;-84
2022/05/15 05:55:00;;;;;;;0.00;0.00;;;20.30;99.90;;;;;;5035802;28;20040;-85
2022/05/15 05:57:37;;;;;;;0.00;0.00;;;20.50;99.90;;;;;;5048453;28;20059;-84
2022/05/15 06:00:15;;;;;;;0.32;0.32;;;20.20;99.90;;;;;;5048466;28;20021;-83
2022/05/15 06:02:44;;;;;;;0.60;0.60;;;19.80;99.90;;;;;;5031925;28;20024;-83
2022/05/15 06:05:10;;;;;;;0.00;0.00;;;19.90;99.90;;;;;;5052192;28;20052;-83
2022/05/15 06:07:39;;;;;;;0.57;0.32;;;19.50;99.90;;;;;;5054653;28;20459;-83
2022/05/15 06:10:08;;;;;;;0.00;0.00;;;20.10;99.90;;;;;;5053189;28;20040;-83
2022/05/15 06:12:54;;;;;;;0.15;0.15;;;20.00;99.90;;;;;;5055456;28;20475;-83
2022/05/15 06:15:22;;;;;;;0.00;0.00;;;20.10;99.90;;;;;;5032482;28;20484;-83
2022/05/15 06:17:49;;;;;;;0.10;0.10;;;20.10;99.90;;;;;;5030970;28;20021;-83
2022/05/15 06:20:17;;;;;;;1.35;0.85;;;19.60;99.90;;;;;;5048947;28;20043;-82
2022/05/15 06:22:44;;;;;;;0.40;0.40;;;19.50;99.90;;;;;;5045277;28;20024;-84
2022/05/15 06:25:11;;;;;;;9.55;4.45;;;19.00;99.90;;;;;;5050554;28;20114;-83
2022/05/15 06:27:40;;;;;;;0.32;0.13;;;19.30;99.90;;;;;;5049290;28;20380;-85
2022/05/15 06:30:07;;;;;;;1.02;0.65;;;19.20;99.90;;;;;;5031997;28;20025;-84
2022/05/15 06:32:34;;;;;;;2.15;0.35;;;19.70;99.90;;;;;;5049445;28;20083;-83
2022/05/15 06:35:00;;;;;;;2.70;1.95;;;19.80;99.90;;;;;;5032809;28;20029;-83
2022/05/15 06:37:26;;;;;;;0.73;0.63;;;19.70;99.90;;;;;;5061693;28;20036;-84
2022/05/15 06:43:27;;;;;;;1.55;1.45;;;19.90;99.90;;;;;;5054064;28;20036;-84
2022/05/15 06:45:57;;;;;;;0.15;0.10;;;19.70;99.90;;;;;;5051293;28;20060;-83
2022/05/15 06:48:23;;;;;;;2.63;1.35;;;20.10;99.90;;;;;;5039130;28;20029;-82
2022/05/15 06:50:49;;;;;;;1.40;1.30;;;20.30;99.90;;;;;;5031943;28;20091;-84
2022/05/15 06:59:25;;;;;;;1.63;1.45;;;19.50;99.90;;;;;;5065028;28;20060;-83
2022/05/15 07:01:51;;;;;;;7.38;2.67;;;19.20;99.90;;;;;;5054216;28;20049;-83
2022/05/15 07:04:23;;;;;;;0.30;0.20;;;19.30;99.90;;;;;;5076531;28;20107;-82
2022/05/15 07:06:52;;;;;;;2.95;1.40;;;19.40;99.90;;;;;;5060547;28;20071;-83
2022/05/15 07:09:26;;;;;;;0.75;0.75;;;19.70;99.90;;;;;;5075011;28;20463;-83
2022/05/15 07:11:52;;;;;;;6.45;2.70;;;19.40;99.90;;;;;;5081089;28;20462;-84
2022/05/15 07:14:25;;;;;;;1.27;1.00;;;19.60;99.90;;;;;;5083212;28;20487;-82
2022/05/15 07:16:54;;;;;;;4.55;3.67;;;19.10;99.90;;;;;;5084260;28;20070;-84
2022/05/15 07:19:23;;;;;;;4.35;3.35;;;19.20;99.90;;;;;;5070306;28;20024;-84
2022/05/15 07:21:49;;;;;;;4.32;2.80;;;19.50;99.90;;;;;;5079611;28;20025;-84
2022/05/15 07:24:16;;;;;;;3.20;2.35;;;19.60;99.90;;;;;;5076702;28;20047;-84
2022/05/15 07:26:48;;;;;;;0.75;0.75;;;19.50;99.90;;;;;;5079547;28;20039;-82
2022/05/15 07:29:20;;;;;;;0.00;0.00;;;19.60;99.90;;;;;;5082429;28;20059;-84
2022/05/15 07:31:51;;;;;;;5.53;3.55;;;20.00;99.90;;;;;;5035514;28;20032;-83
2022/05/15 07:34:17;;;;;;;1.52;0.93;;;20.30;99.90;;;;;;5062041;28;20036;-83
2022/05/15 07:36:44;;;;;;;4.05;1.50;;;20.40;99.90;;;;;;5075545;28;20032;-82
2022/05/15 07:39:19;;;;;;;9.88;5.25;;;20.50;99.90;;;;;;5077575;28;20028;-81
2022/05/15 07:41:55;;;;;;;0.60;0.60;;;20.70;99.90;;;;;;5076060;28;20028;-82
2022/05/15 07:44:26;;;;;;;7.80;2.28;;;20.40;99.90;;;;;;5068144;28;20086;-83
2022/05/15 07:46:52;;;;;;;0.88;0.88;;;20.70;99.90;;;;;;5063458;28;20060;-81
2022/05/15 07:49:19;;;;;;;0.90;0.65;;;20.30;99.90;;;;;;5050254;28;20029;-82
2022/05/15 07:51:45;;;;;;;2.22;2.13;;;20.60;99.90;;;;;;5070570;28;20024;-81
2022/05/15 07:54:16;;;;;;;5.35;4.35;;;20.20;99.90;;;;;;5053477;28;20075;-81
2022/05/15 07:56:43;;;;;;;8.48;3.67;;;20.50;99.90;;;;;;5074219;28;20079;-81
2022/05/15 07:59:11;;;;;;;4.70;2.08;;;20.60;99.90;;;;;;5074753;28;20475;-82
2022/05/15 08:01:38;;;;;;;0.10;0.10;;;20.70;99.90;;;;;;5074909;28;20463;-82
2022/05/15 08:04:05;;;;;;;2.33;1.92;;;20.10;99.90;;;;;;5071996;28;20033;-82
2022/05/15 08:09:15;;;;;;;11.68;4.80;;;20.90;99.90;;;;;;5074814;28;20031;-82
2022/05/15 08:11:44;;;;;;;4.82;2.47;;;20.90;99.90;;;;;;5058017;28;20021;-82
2022/05/15 08:14:11;;;;;;;0.00;0.00;;;20.30;99.90;;;;;;5070210;28;20028;-81
2022/05/15 08:16:38;;;;;;;7.90;5.60;;;20.20;99.90;;;;;;5074215;28;20417;-82
2022/05/15 08:24:37;;;;;;;0.85;0.65;;;20.30;99.90;;;;;;5078111;28;20039;-81
2022/05/15 08:27:04;;;;;;;2.83;2.50;;;20.20;99.90;;;;;;5063516;28;20391;-81
2022/05/15 08:29:30;;;;;;;1.23;1.10;;;20.10;99.90;;;;;;5048900;28;20021;-81
2022/05/15 08:31:57;;;;;;;7.05;2.33;;;20.20;99.90;;;;;;5074366;28;20017;-81
2022/05/15 08:34:25;;;;;;;3.35;1.20;;;20.40;99.90;;;;;;5077338;28;20025;-83
2022/05/15 08:36:51;;;;;;;0.70;0.70;;;20.20;99.90;;;;;;5048875;28;20025;-82
2022/05/15 08:39:18;;;;;;;4.18;2.45;;;20.50;99.90;;;;;;5082118;28;20496;-81
2022/05/15 08:41:51;;;;;;;1.27;1.17;;;20.70;99.90;;;;;;5070724;28;20035;-80
2022/05/15 08:44:29;;;;;;;2.33;2.05;;;20.80;99.90;;;;;;5054261;28;20025;-83
2022/05/15 08:47:18;;;;;;;6.85;4.05;;;20.40;99.90;;;;;;5046923;28;20021;-81
2022/05/15 08:50:09;;;;;;;0.10;0.10;;;20.70;99.90;;;;;;5043530;28;20171;-81
2022/05/15 08:53:03;;;;;;;2.65;1.75;;;20.60;99.90;;;;;;5054604;28;20052;-79
2022/05/15 08:55:42;;;;;;;3.55;2.33;;;20.40;99.90;;;;;;5073561;28;20020;-79
2022/05/15 08:58:25;;;;;;;3.58;2.65;;;20.60;99.90;;;;;;5071381;28;20051;-80
2022/05/15 09:00:53;;;;;;;2.88;1.75;;;20.90;99.90;;;;;;5071004;28;20028;-80
2022/05/15 09:03:21;;;;;;;0.50;0.50;;;20.60;99.90;;;;;;5072834;28;20028;-80
2022/05/15 09:06:08;;;;;;;3.47;2.67;;;20.20;99.90;;;;;;5073518;28;20020;-80
2022/05/15 09:09:04;;;;;;;2.40;1.85;;;20.70;99.90;;;;;;5071485;28;20021;-80
2022/05/15 09:11:52;;;;;;;1.13;1.02;;;20.80;99.90;;;;;;5080598;28;20087;-80
2022/05/15 09:14:40;;;;;;;6.07;3.00;;;20.40;99.90;;;;;;5083127;28;20029;-81
2022/05/15 09:17:24;;;;;;;0.88;0.73;;;20.60;99.90;;;;;;5063944;28;20024;-80
2022/05/15 09:20:27;;;;;;;3.03;2.00;;;20.80;99.90;;;;;;5066830;28;20021;-79
2022/05/15 09:23:07;;;;;;;0.55;0.47;;;21.00;99.90;;;;;;5065719;28;20063;-82
2022/05/15 09:25:38;;;;;;;0.32;0.30;;;21.00;99.90;;;;;;5075405;28;20017;-80
2022/05/15 09:28:08;;;;;;;0.60;0.22;;;21.10;99.90;;;;;;5074141;28;20048;-82
2022/05/15 09:30:36;;;;;;;2.28;1.25;;;21.20;99.90;;;;;;5072705;28;20072;-82
2022/05/15 09:33:02;;;;;;;0.13;0.13;;;21.40;99.90;;;;;;5055012;28;20028;-81
2022/05/15 09:35:35;;;;;;;0.75;0.30;;;21.40;99.90;;;;;;5069567;28;20024;-82
2022/05/15 09:43:40;;;;;;;0.88;0.57;;;21.30;99.90;;;;;;5073225;28;20167;-80
2022/05/15 09:46:11;;;;;;;0.98;0.98;;;21.20;99.90;;;;;;5073457;28;20028;-82
2022/05/15 09:48:51;;;;;;;1.50;1.10;;;20.90;99.90;;;;;;5055628;28;20053;-82
2022/05/15 09:51:45;;;;;;;0.00;0.00;;;20.80;99.90;;;;;;5072157;28;20467;-83
2022/05/15 09:54:37;;;;;;;0.10;0.10;;;20.80;99.90;;;;;;5072927;28;20041;-82
2022/05/15 09:57:30;;;;;;;0.05;0.05;;;20.80;99.90;;;;;;5065505;28;20037;-80
2022/05/15 10:00:01;;;;;;;1.25;0.63;;;21.00;99.90;;;;;;5068515;28;20028;-81
2022/05/15 10:02:44;;;;;;;0.10;0.10;;;21.30;99.90;;;;;;5071868;28;20029;-81
2022/05/15 10:05:19;;;;;;;0.90;0.80;;;21.20;99.90;;;;;;5069920;28;20066;-81
2022/05/15 10:08:00;;;;;;;0.00;0.00;;;21.30;99.90;;;;;;5055673;28;20020;-80
2022/05/15 10:10:45;;;;;;;0.55;0.40;;;21.10;99.90;;;;;;5067767;28;20099;-81
2022/05/15 10:13:26;;;;;;;3.72;0.75;;;21.30;99.90;;;;;;5047828;28;20052;-81
2022/05/15 10:15:58;;;;;;;0.00;0.00;;;21.20;99.90;;;;;;5069038;28;20033;-81
2022/05/15 10:18:27;;;;;;;0.17;0.10;;;21.40;99.90;;;;;;5071321;28;20021;-82
2022/05/15 10:20:54;;;;;;;0.00;0.00;;;21.60;99.90;;;;;;5075705;28;20386;-81
2022/05/15 10:23:26;;;;;;;5.63;1.70;;;21.70;99.90;;;;;;5056415;28;20036;-81
2022/05/15 10:25:58;;;;;;;0.98;0.98;;;21.60;99.90;;;;;;5057916;28;20078;-81
2022/05/15 10:28:33;;;;;;;0.52;0.45;;;21.40;99.90;;;;;;5075791;28;20048;-84
2022/05/15 10:31:18;;;;;;;2.15;1.58;;;21.10;99.90;;;;;;5072730;28;20060;-82
2022/05/15 10:33:53;;;;;;;1.88;1.08;;;21.20;99.90;;;;;;5076229;28;20032;-81
2022/05/15 10:36:25;;;;;;;1.33;1.08;;;21.30;99.90;;;;;;5081389;28;20028;-81
2022/05/15 10:39:19;;;;;;;1.00;0.82;;;21.30;99.90;;;;;;5065384;28;20029;-82
2022/05/15 10:41:54;;;;;;;1.27;1.17;;;21.30;99.90;;;;;;5070668;28;20066;-82
2022/05/15 10:44:39;;;;;;;1.95;1.10;;;21.40;99.90;;;;;;5057997;28;20028;-82
2022/05/15 10:47:38;;;;;;;1.00;1.00;;;21.20;99.90;;;;;;5074757;28;20478;-84
2022/05/15 10:50:18;;;;;;;5.43;1.90;;;21.10;99.90;;;;;;5069483;28;20025;-84
2022/05/15 10:59:36;;;;;;;0.30;0.30;;;20.70;99.90;;;;;;5062531;28;20039;-80
2022/05/15 11:02:33;;;;;;;0.73;0.73;;;21.10;99.90;;;;;;5052863;28;20463;-81
2022/05/15 11:05:08;;;;;;;0.35;0.35;;;21.10;99.90;;;;;;5069852;28;20037;-81
2022/05/15 11:07:41;;;;;;;0.00;0.00;;;21.10;99.90;;;;;;5072116;28;20029;-82
2022/05/15 11:10:18;;;;;;;2.22;2.03;;;21.20;99.90;;;;;;5077996;28;20079;-82
2022/05/15 11:13:30;;;;;;;3.67;1.50;;;21.40;99.90;;;;;;5074672;28;20017;-82
2022/05/15 11:16:16;;;;;;;6.60;1.55;;;21.00;99.90;;;;;;5080681;28;20039;-81
2022/05/15 11:18:47;;;;;;;3.00;2.08;;;20.90;99.90;;;;;;5079306;28;20106;-81
2022/05/15 11:21:24;;;;;;;1.55;0.77;;;20.90;99.90;;;;;;5050668;28;20021;-81
2022/05/15 11:23:57;;;;;;;1.67;1.23;;;20.90;99.90;;;;;;5077265;28;20032;-82
2022/05/15 11:26:41;;;;;;;0.20;0.20;;;21.00;99.90;;;;;;5079220;28;20027;-81
2022/05/15 11:29:14;;;;;;;2.85;2.42;;;21.10;99.90;;;;;;5060405;28;20067;-82
2022/05/15 11:31:55;;;;;;;6.32;1.95;;;21.00;99.90;;;;;;5071046;28;20017;-81
2022/05/15 11:34:41;;;;;;;0.80;0.40;;;20.80;99.90;;;;;;5070032;28;20056;-82
2022/05/15 11:37:41;;;;;;;1.55;1.15;;;20.70;99.90;;;;;;5077191;28;20028;-82
2022/05/15 11:40:28;;;;;;;6.15;2.65;;;20.90;99.90;;;;;;5074392;28;20179;-82
2022/05/15 11:42:54;;;;;;;2.90;2.25;;;21.00;99.90;;;;;;5056772;28;20461;-82
2022/05/15 11:45:33;;;;;;;1.80;1.65;;;20.80;99.90;;;;;;5073864;28;20035;-82
2022/05/15 11:48:13;;;;;;;3.10;2.70;;;20.60;99.90;;;;;;5075298;28;20021;-81
2022/05/15 11:50:56;;;;;;;1.63;1.33;;;20.60;99.90;;;;;;5054169;28;20162;-82
2022/05/15 11:53:47;;;;;;;0.60;0.60;;;20.50;99.90;;;;;;5074177;28;20546;-82
2022/05/15 11:56:22;;;;;;;2.85;1.95;;;20.40;99.90;;;;;;5058219;28;20025;-81
2022/05/15 11:59:01;;;;;;;0.93;0.93;;;20.40;99.90;;;;;;5073230;28;20387;-81
2022/05/15 12:01:38;;;;;;;2.00;1.75;;;20.50;99.90;;;;;;5073764;28;20032;-82
2022/05/15 12:04:09;;;;;;;2.47;2.15;;;20.40;99.90;;;;;;5058359;28;20033;-82
2022/05/15 12:06:56;;;;;;;0.10;0.08;;;20.60;99.90;;;;;;5074691;28;20052;-81
2022/05/15 12:09:31;;;;;;;0.90;0.55;;;20.30;99.90;;;;;;5073993;28;20652;-81
2022/05/15 12:12:29;;;;;;;4.47;1.52;;;20.30;99.90;;;;;;5052297;28;20020;-82
2022/05/15 12:15:12;;;;;;;3.70;1.55;;;20.40;99.90;;;;;;5071704;28;20048;-82
2022/05/15 12:17:44;;;;;;;1.50;1.40;;;20.40;99.90;;;;;;5051425;28;20027;-82
2022/05/15 12:20:29;;;;;;;1.95;1.27;;;20.40;99.90;;;;;;5070590;28;20052;-81
2022/05/15 12:23:02;;;;;;;0.57;0.40;;;20.40;99.90;;;;;;5073076;28;20025;-81
2022/05/15 12:25:33;;;;;;;1.10;1.10;;;20.50;99.90;;;;;;5073788;28;20103;-83
2022/05/15 12:31:16;;;;;;;4.20;0.85;;;20.60;99.90;;;;;;5072472;28;20122;-81
2022/05/15 12:33:44;;;;;;;1.55;1.35;;;20.50;99.90;;;;;;5058096;28;20040;-82
2022/05/15 12:36:15;;;;;;;0.57;0.55;;;20.50;99.90;;;;;;5071028;28;20028;-82
2022/05/15 12:38:48;;;;;;;0.25;0.15;;;20.60;99.90;;;;;;5068529;28;20032;-83
2022/05/15 12:41:25;;;;;;;1.45;0.88;;;20.40;99.90;;;;;;5056437;28;20044;-83
2022/05/15 12:43:51;;;;;;;0.20;0.20;;;20.50;99.90;;;;;;5056334;28;20032;-82
2022/05/15 12:46:29;;;;;;;0.20;0.20;;;20.50;99.90;;;;;;5078675;28;20020;-82
2022/05/15 12:48:55;;;;;;;0.95;0.93;;;20.40;99.90;;;;;;5082154;28;20052;-83
2022/05/15 12:51:26;;;;;;;0.00;0.00;;;20.50;99.90;;;;;;5076804;28;20168;-83
2022/05/15 12:53:53;;;;;;;0.00;0.00;;;20.60;99.90;;;;;;5072466;28;20067;-82
2022/05/15 12:56:27;;;;;;;5.25;0.93;;;20.50;99.90;;;;;;5051348;28;20028;-85
2022/05/15 12:58:59;;;;;;;3.13;0.73;;;20.60;99.90;;;;;;5068200;28;20490;-83
2022/05/15 13:01:29;;;;;;;0.00;0.00;;;20.50;99.90;;;;;;5069723;28;20025;-83
2022/05/15 13:04:00;;;;;;;3.53;2.03;;;20.50;99.90;;;;;;5068436;28;20043;-83
2022/05/15 13:06:48;;;;;;;0.75;0.75;;;20.50;99.90;;;;;;5049911;28;20056;-83
2022/05/15 13:09:21;;;;;;;0.00;0.00;;;20.50;99.90;;;;;;5072226;28;20032;-83
2022/05/15 13:11:55;;;;;;;0.00;0.00;;;20.40;99.90;;;;;;5055818;28;20024;-82
2022/05/15 13:14:37;;;;;;;0.00;0.00;;;20.40;99.90;;;;;;5070850;28;20075;-83
2022/05/15 13:17:04;;;;;;;0.00;0.00;;;20.40;99.90;;;;;;5072149;28;20052;-83
2022/05/15 13:19:51;;;;;;;0.00;0.00;;;20.30;99.90;;;;;;5072968;28;20031;-81
2022/05/15 13:22:24;;;;;;;0.35;0.25;;;20.50;99.90;;;;;;5072229;28;20165;-83
2022/05/15 13:24:59;;;;;;;1.58;0.90;;;20.30;99.90;;;;;;5067719;28;20475;-84
2022/05/15 13:27:26;;;;;;;0.00;0.00;;;20.30;99.90;;;;;;5068715;28;20095;-84
2022/05/15 13:29:56;;;;;;;0.00;0.00;;;20.20;99.90;;;;;;5052187;28;20020;-83
2022/05/15 13:32:23;;;;;;;0.00;0.00;;;20.20;99.90;;;;;;5071910;28;20029;-83
2022/05/15 13:34:51;;;;;;;0.00;0.00;;;20.20;99.90;;;;;;5072734;28;20028;-83
2022/05/15 13:37:33;;;;;;;0.00;0.00;;;20.10;99.90;;;;;;5052703;28;20021;-84
2022/05/15 13:45:48;;;;;;;0.05;0.05;;;20.30;99.90;;;;;;5072582;28;20055;-82
2022/05/15 13:48:14;;;;;;;0.00;0.00;;;20.30;99.90;;;;;;5049355;28;20025;-82
2022/05/15 13:50:49;;;;;;;0.00;0.00;;;20.10;99.90;;;;;;5054273;28;20028;-83
2022/05/15 13:53:34;;;;;;;0.00;0.00;;;20.00;99.90;;;;;;5063092;28;20530;-83
2022/05/15 13:59:35;;;;;;;0.20;0.20;;;19.70;99.90;;;;;;5030242;28;20496;-84
2022/05/15 14:02:15;;;;;;;0.00;0.00;;;19.70;99.90;;;;;;5049735;28;20036;-84
2022/05/15 14:05:00;;;;;;;0.00;0.00;;;19.70;99.90;;;;;;5034612;28;20033;-84
2022/05/15 14:07:35;;;;;;;0.00;0.00;;;19.70;99.90;;;;;;5054827;28;20411;-84